Time;durP1;ratioP1;P1;durP2;ratioP2;P2;SDS_P1;SDS_P2;PMS_P1;PMS_P2;Temp;Humidity;BMP_temperature;BMP_pressure;BME280_temperature;BME280_humidity;BME280_pressure;Samples;Min_cycle;Max_cycle;Signal;HPM_P1;HPM_P2
2023/05/14 00:00:20;;;;;;;18.05;9.63;;;;;;;;;;2510555;23;20015;-73
2023/05/14 00:01:41;;;;;;;15.77;10.25;;;;;;;;;;2497350;23;20011;-74
2023/05/14 00:03:02;;;;;;;14.30;9.88;;;;;;;;;;2531322;23;20435;-73
2023/05/14 00:04:23;;;;;;;13.70;9.60;;;;;;;;;;2525686;23;20014;-73
2023/05/14 00:05:44;;;;;;;23.83;11.52;;;;;;;;;;2520761;23;20017;-73
2023/05/14 00:07:10;;;;;;;12.40;9.07;;;;;;;;;;2511313;23;20523;-73
2023/05/14 00:08:35;;;;;;;15.68;9.82;;;;;;;;;;2520868;23;20336;-73
2023/05/14 00:09:57;;;;;;;12.68;9.20;;;;;;;;;;2511025;23;20066;-73
2023/05/14 00:11:17;;;;;;;19.27;10.40;;;;;;;;;;2517145;23;20340;-73
2023/05/14 00:12:38;;;;;;;17.10;9.73;;;;;;;;;;2518902;23;20026;-72
2023/05/14 00:13:59;;;;;;;13.20;9.18;;;;;;;;;;2510394;23;20364;-73
2023/05/14 00:15:21;;;;;;;16.05;10.45;;;;;;;;;;2520911;23;20010;-73
2023/05/14 00:16:41;;;;;;;15.65;9.35;;;;;;;;;;2525413;23;20010;-73
2023/05/14 00:18:02;;;;;;;15.15;8.93;;;;;;;;;;2521819;23;20030;-73
2023/05/14 00:19:23;;;;;;;14.88;9.13;;;;;;;;;;2534506;23;20062;-73
2023/05/14 00:20:45;;;;;;;15.57;10.00;;;;;;;;;;2525426;23;20018;-73
2023/05/14 00:22:06;;;;;;;19.67;10.43;;;;;;;;;;2519250;23;20018;-73
2023/05/14 00:23:27;;;;;;;18.08;9.27;;;;;;;;;;2528203;23;20384;-73
2023/05/14 00:24:48;;;;;;;14.63;9.80;;;;;;;;;;2519143;23;20089;-73
2023/05/14 00:26:09;;;;;;;22.58;12.00;;;;;;;;;;2530814;23;20009;-73
2023/05/14 00:27:30;;;;;;;16.67;9.65;;;;;;;;;;2526188;23;20010;-73
2023/05/14 00:28:53;;;;;;;13.43;9.73;;;;;;;;;;2521440;23;20014;-73
2023/05/14 00:30:14;;;;;;;15.65;9.40;;;;;;;;;;2532885;23;20014;-73
2023/05/14 00:31:38;;;;;;;18.92;9.73;;;;;;;;;;2513800;23;20010;-72
2023/05/14 00:32:58;;;;;;;14.40;9.95;;;;;;;;;;2508070;23;20022;-73
2023/05/14 00:34:19;;;;;;;20.27;10.10;;;;;;;;;;2509994;23;20415;-72
2023/05/14 00:35:40;;;;;;;17.77;9.90;;;;;;;;;;2511052;23;20356;-73
2023/05/14 00:37:01;;;;;;;17.25;10.30;;;;;;;;;;2509434;23;20060;-73
2023/05/14 00:38:26;;;;;;;16.70;9.82;;;;;;;;;;2498165;23;20018;-73
2023/05/14 00:39:47;;;;;;;13.52;9.73;;;;;;;;;;2507258;23;20015;-73
2023/05/14 00:41:08;;;;;;;19.42;10.63;;;;;;;;;;2509859;23;20011;-73
2023/05/14 00:42:29;;;;;;;19.80;11.15;;;;;;;;;;2499198;23;20334;-73
2023/05/14 00:43:50;;;;;;;16.67;11.10;;;;;;;;;;2502869;23;20018;-73
2023/05/14 00:45:11;;;;;;;16.77;10.60;;;;;;;;;;2510000;23;20022;-73
2023/05/14 00:46:31;;;;;;;16.52;10.75;;;;;;;;;;2510345;23;20348;-72
2023/05/14 00:47:52;;;;;;;14.00;11.15;;;;;;;;;;2507955;23;20011;-73
2023/05/14 00:49:16;;;;;;;13.57;10.38;;;;;;;;;;2509702;23;20018;-73
2023/05/14 00:50:39;;;;;;;16.00;11.05;;;;;;;;;;2498589;23;20015;-73
2023/05/14 00:52:00;;;;;;;28.65;13.23;;;;;;;;;;2510185;23;20011;-73
2023/05/14 00:53:21;;;;;;;15.80;11.48;;;;;;;;;;2509272;23;20018;-73
2023/05/14 00:54:42;;;;;;;16.50;11.30;;;;;;;;;;2518670;23;20417;-73
2023/05/14 00:56:04;;;;;;;16.65;10.70;;;;;;;;;;2521087;23;20069;-76
2023/05/14 00:57:25;;;;;;;16.55;10.27;;;;;;;;;;2519470;23;20345;-75
2023/05/14 00:58:46;;;;;;;16.67;11.10;;;;;;;;;;2521333;23;20006;-75
2023/05/14 01:00:08;;;;;;;23.58;12.10;;;;;;;;;;2522636;23;20021;-76
2023/05/14 01:01:30;;;;;;;25.45;13.38;;;;;;;;;;2521309;23;20006;-75
2023/05/14 01:02:50;;;;;;;14.43;10.68;;;;;;;;;;2521786;23;20271;-75
2023/05/14 01:04:15;;;;;;;18.35;12.40;;;;;;;;;;2520346;23;20452;-76
2023/05/14 01:05:39;;;;;;;29.90;14.07;;;;;;;;;;2520605;23;20017;-75
2023/05/14 01:07:08;;;;;;;25.33;14.73;;;;;;;;;;2518517;23;20441;-75
2023/05/14 01:08:49;;;;;;;17.85;12.10;;;;;;;;;;2506828;23;20055;-75
2023/05/14 01:10:12;;;;;;;22.98;12.52;;;;;;;;;;2519079;23;20014;-75
2023/05/14 01:11:48;;;;;;;24.00;13.65;;;;;;;;;;2518574;23;20428;-75
2023/05/14 01:13:12;;;;;;;17.98;11.70;;;;;;;;;;2519574;23;20014;-75
2023/05/14 01:14:43;;;;;;;17.38;11.82;;;;;;;;;;2519693;23;20010;-75
2023/05/14 01:16:04;;;;;;;17.27;12.35;;;;;;;;;;2519882;23;20070;-75
2023/05/14 01:17:29;;;;;;;19.40;12.82;;;;;;;;;;2522616;23;20452;-75
2023/05/14 01:18:53;;;;;;;20.90;11.57;;;;;;;;;;2520253;23;20121;-76
2023/05/14 01:20:15;;;;;;;21.08;13.38;;;;;;;;;;2519120;23;20014;-75
2023/05/14 01:21:37;;;;;;;24.23;12.93;;;;;;;;;;2509254;23;20022;-75
2023/05/14 01:23:01;;;;;;;20.58;12.85;;;;;;;;;;2516055;23;20018;-75
2023/05/14 01:24:22;;;;;;;24.02;12.82;;;;;;;;;;2508678;23;20318;-75
2023/05/14 01:25:43;;;;;;;17.00;11.70;;;;;;;;;;2516184;23;20014;-75
2023/05/14 01:27:24;;;;;;;20.70;11.93;;;;;;;;;;2522405;23;20006;-73
2023/05/14 01:28:46;;;;;;;21.50;13.32;;;;;;;;;;2520424;23;20010;-73
2023/05/14 01:30:26;;;;;;;18.35;11.40;;;;;;;;;;2519896;23;20012;-73
2023/05/14 01:31:48;;;;;;;24.50;13.50;;;;;;;;;;2519265;23;20068;-73
2023/05/14 01:33:10;;;;;;;17.45;12.32;;;;;;;;;;2507613;23;20010;-73
2023/05/14 01:34:31;;;;;;;16.45;12.30;;;;;;;;;;2518069;23;20017;-73
2023/05/14 01:35:53;;;;;;;21.38;13.57;;;;;;;;;;2519829;23;20014;-73
2023/05/14 01:37:14;;;;;;;23.88;13.70;;;;;;;;;;2519990;23;20045;-73
2023/05/14 01:38:36;;;;;;;19.67;13.63;;;;;;;;;;2519981;23;20335;-73
2023/05/14 01:39:57;;;;;;;17.10;12.27;;;;;;;;;;2519257;23;20010;-74
2023/05/14 01:41:20;;;;;;;20.23;12.50;;;;;;;;;;2518783;23;20519;-73
2023/05/14 01:42:42;;;;;;;22.85;13.40;;;;;;;;;;2518831;23;20018;-73
2023/05/14 01:44:03;;;;;;;23.77;13.20;;;;;;;;;;2507960;23;20015;-73
2023/05/14 01:45:23;;;;;;;20.08;12.95;;;;;;;;;;2516596;23;20014;-74
2023/05/14 01:46:44;;;;;;;33.50;16.75;;;;;;;;;;2517209;23;20018;-74
2023/05/14 01:48:05;;;;;;;22.67;13.63;;;;;;;;;;2507108;23;20013;-74
2023/05/14 01:49:26;;;;;;;23.13;13.73;;;;;;;;;;2517019;23;20348;-73
2023/05/14 01:50:49;;;;;;;19.85;12.90;;;;;;;;;;2508478;23;20017;-73
2023/05/14 01:52:10;;;;;;;25.13;13.85;;;;;;;;;;2515534;23;20014;-74
2023/05/14 01:53:33;;;;;;;25.23;14.45;;;;;;;;;;2518535;23;20010;-73
2023/05/14 01:54:54;;;;;;;22.63;14.05;;;;;;;;;;2519344;23;20033;-74
2023/05/14 01:56:16;;;;;;;18.75;13.32;;;;;;;;;;2507138;23;20079;-74
2023/05/14 01:57:37;;;;;;;20.67;13.57;;;;;;;;;;2516603;23;20006;-74
2023/05/14 01:58:57;;;;;;;21.85;13.88;;;;;;;;;;2506473;23;20014;-74
2023/05/14 02:00:19;;;;;;;22.27;13.73;;;;;;;;;;2515507;23;20017;-73
2023/05/14 02:01:40;;;;;;;20.98;13.88;;;;;;;;;;2518346;23;20018;-74
2023/05/14 02:03:01;;;;;;;25.85;14.63;;;;;;;;;;2509324;23;20019;-74
2023/05/14 02:04:21;;;;;;;23.08;14.13;;;;;;;;;;2506588;23;20472;-73
2023/05/14 02:05:42;;;;;;;26.35;14.90;;;;;;;;;;2494129;23;20019;-73
2023/05/14 02:07:03;;;;;;;21.70;14.82;;;;;;;;;;2501924;23;20007;-73
2023/05/14 02:08:24;;;;;;;22.83;14.50;;;;;;;;;;2492844;23;20517;-74
2023/05/14 02:09:45;;;;;;;36.85;16.70;;;;;;;;;;2500422;23;20018;-74
2023/05/14 02:11:06;;;;;;;26.15;14.25;;;;;;;;;;2507004;23;20014;-74
2023/05/14 02:12:27;;;;;;;28.67;16.15;;;;;;;;;;2494087;23;20007;-74
2023/05/14 02:13:48;;;;;;;21.88;14.13;;;;;;;;;;2504272;23;20018;-73
2023/05/14 02:15:09;;;;;;;17.17;13.30;;;;;;;;;;2506546;23;20007;-74
2023/05/14 02:16:30;;;;;;;21.27;13.85;;;;;;;;;;2496399;23;20018;-73
2023/05/14 02:17:51;;;;;;;30.05;16.42;;;;;;;;;;2505125;23;20341;-73
2023/05/14 02:19:12;;;;;;;28.25;16.17;;;;;;;;;;2504749;23;20305;-74
2023/05/14 02:20:36;;;;;;;22.05;13.52;;;;;;;;;;2507396;23;20018;-74
2023/05/14 02:21:57;;;;;;;27.80;15.43;;;;;;;;;;2507940;23;20011;-73
2023/05/14 02:23:18;;;;;;;20.80;13.85;;;;;;;;;;2495729;23;20015;-74
2023/05/14 02:24:39;;;;;;;28.23;14.80;;;;;;;;;;2493190;23;20039;-73
2023/05/14 02:26:00;;;;;;;23.52;14.65;;;;;;;;;;2504640;23;20448;-73
2023/05/14 02:27:21;;;;;;;25.67;13.90;;;;;;;;;;2496021;23;20018;-73
2023/05/14 02:28:42;;;;;;;26.08;14.82;;;;;;;;;;2506283;23;20014;-74
2023/05/14 02:30:03;;;;;;;21.17;14.15;;;;;;;;;;2508506;23;20014;-74
2023/05/14 02:31:24;;;;;;;23.48;14.70;;;;;;;;;;2511412;23;20349;-74
2023/05/14 02:32:45;;;;;;;23.98;14.63;;;;;;;;;;2495246;23;20007;-76
2023/05/14 02:34:06;;;;;;;24.88;14.38;;;;;;;;;;2503283;23;20003;-76
2023/05/14 02:35:27;;;;;;;22.42;15.02;;;;;;;;;;2510021;23;20017;-76
2023/05/14 02:36:50;;;;;;;22.05;14.55;;;;;;;;;;2507427;23;20326;-76
2023/05/14 02:38:11;;;;;;;23.08;15.15;;;;;;;;;;2496335;23;20026;-76
2023/05/14 02:39:32;;;;;;;19.23;14.15;;;;;;;;;;2505519;23;20011;-76
2023/05/14 02:40:53;;;;;;;23.10;14.85;;;;;;;;;;2507254;23;20011;-76
2023/05/14 02:42:14;;;;;;;27.17;15.43;;;;;;;;;;2493750;23;20015;-76
2023/05/14 02:43:35;;;;;;;25.27;14.60;;;;;;;;;;2502410;23;20074;-76
2023/05/14 02:44:56;;;;;;;18.70;13.73;;;;;;;;;;2503727;23;20021;-76
2023/05/14 02:46:16;;;;;;;25.83;15.50;;;;;;;;;;2505546;23;20472;-76
2023/05/14 02:47:37;;;;;;;28.38;16.40;;;;;;;;;;2514968;23;20018;-76
2023/05/14 02:48:58;;;;;;;25.05;16.33;;;;;;;;;;2520934;23;20014;-76
2023/05/14 02:50:19;;;;;;;35.63;16.25;;;;;;;;;;2508315;23;20342;-75
2023/05/14 02:51:40;;;;;;;25.80;14.88;;;;;;;;;;2516823;23;20010;-77
2023/05/14 02:53:01;;;;;;;23.13;15.20;;;;;;;;;;2506391;23;20014;-76
2023/05/14 02:54:22;;;;;;;32.50;16.50;;;;;;;;;;2514845;23;20007;-76
2023/05/14 02:55:43;;;;;;;25.77;15.07;;;;;;;;;;2520866;23;20018;-76
2023/05/14 02:57:04;;;;;;;23.13;15.63;;;;;;;;;;2520140;23;20444;-76
2023/05/14 02:58:25;;;;;;;32.58;16.50;;;;;;;;;;2508111;23;20015;-76
2023/05/14 02:59:46;;;;;;;23.88;14.63;;;;;;;;;;2502248;23;20498;-76
2023/05/14 03:01:07;;;;;;;22.92;15.23;;;;;;;;;;2510251;23;20015;-76
2023/05/14 03:02:29;;;;;;;19.88;15.35;;;;;;;;;;2506914;23;20015;-76
2023/05/14 03:03:49;;;;;;;23.60;15.13;;;;;;;;;;2504007;23;20015;-75
2023/05/14 03:05:10;;;;;;;26.23;15.48;;;;;;;;;;2495924;23;20381;-76
2023/05/14 03:06:31;;;;;;;24.85;15.98;;;;;;;;;;2494315;23;20087;-76
2023/05/14 03:07:52;;;;;;;25.63;15.82;;;;;;;;;;2492538;23;20055;-75
2023/05/14 03:09:13;;;;;;;23.35;15.50;;;;;;;;;;2491920;23;20015;-76
2023/05/14 03:10:34;;;;;;;26.85;16.13;;;;;;;;;;2493087;23;20383;-75
2023/05/14 03:11:55;;;;;;;29.73;16.77;;;;;;;;;;2492389;23;20007;-76
2023/05/14 03:13:18;;;;;;;22.87;15.57;;;;;;;;;;2510490;23;20010;-75
2023/05/14 03:14:39;;;;;;;21.77;14.77;;;;;;;;;;2508116;23;20385;-76
2023/05/14 03:16:00;;;;;;;26.63;15.52;;;;;;;;;;2515197;23;20026;-75
2023/05/14 03:17:21;;;;;;;36.25;18.67;;;;;;;;;;2507354;23;20019;-76
2023/05/14 03:18:42;;;;;;;22.65;14.88;;;;;;;;;;2502900;23;20021;-75
2023/05/14 03:20:05;;;;;;;21.00;15.55;;;;;;;;;;2516683;23;20078;-76
2023/05/14 03:21:30;;;;;;;29.50;17.50;;;;;;;;;;2521564;23;20037;-75
2023/05/14 03:22:51;;;;;;;25.65;16.08;;;;;;;;;;2522270;23;20019;-76
2023/05/14 03:24:12;;;;;;;28.02;17.13;;;;;;;;;;2523320;23;20527;-75
2023/05/14 03:25:33;;;;;;;32.15;17.33;;;;;;;;;;2520320;23;20021;-75
2023/05/14 03:26:54;;;;;;;25.42;16.40;;;;;;;;;;2507864;23;20117;-75
2023/05/14 03:28:15;;;;;;;23.33;16.42;;;;;;;;;;2519713;23;20429;-75
2023/05/14 03:29:36;;;;;;;27.70;16.30;;;;;;;;;;2519782;23;20041;-75
2023/05/14 03:30:57;;;;;;;27.10;17.05;;;;;;;;;;2521701;23;20006;-75
2023/05/14 03:32:20;;;;;;;33.00;16.67;;;;;;;;;;2521128;23;20344;-75
2023/05/14 03:33:41;;;;;;;26.33;15.70;;;;;;;;;;2509756;23;20341;-75
2023/05/14 03:35:02;;;;;;;24.77;16.13;;;;;;;;;;2497139;23;20007;-75
2023/05/14 03:36:23;;;;;;;29.90;17.58;;;;;;;;;;2503915;23;20393;-74
2023/05/14 03:37:44;;;;;;;27.00;17.20;;;;;;;;;;2508531;23;20015;-75
2023/05/14 03:39:05;;;;;;;28.58;17.48;;;;;;;;;;2496700;23;20095;-75
2023/05/14 03:40:27;;;;;;;27.35;16.15;;;;;;;;;;2494899;23;20019;-75
2023/05/14 03:41:48;;;;;;;31.67;17.25;;;;;;;;;;2506232;23;20026;-73
2023/05/14 03:43:12;;;;;;;33.33;18.15;;;;;;;;;;2496799;23;20091;-73
2023/05/14 03:44:33;;;;;;;31.23;17.63;;;;;;;;;;2506864;23;20010;-73
2023/05/14 03:45:53;;;;;;;31.40;17.25;;;;;;;;;;2512342;23;20015;-73
2023/05/14 03:47:14;;;;;;;30.60;17.77;;;;;;;;;;2510894;23;20445;-73
2023/05/14 03:48:35;;;;;;;28.65;18.17;;;;;;;;;;2510455;23;20034;-73
2023/05/14 03:49:56;;;;;;;23.95;15.88;;;;;;;;;;2496927;23;20015;-73
2023/05/14 03:51:17;;;;;;;32.33;18.48;;;;;;;;;;2505646;23;20346;-73
2023/05/14 03:52:39;;;;;;;28.65;17.92;;;;;;;;;;2509306;23;20007;-73
2023/05/14 03:54:00;;;;;;;28.17;17.45;;;;;;;;;;2508840;23;20394;-73
2023/05/14 03:55:21;;;;;;;28.35;17.67;;;;;;;;;;2504341;23;20015;-73
2023/05/14 03:56:42;;;;;;;34.03;19.13;;;;;;;;;;2508482;23;20393;-73
2023/05/14 03:58:06;;;;;;;32.75;19.27;;;;;;;;;;2508120;23;20014;-73
2023/05/14 03:59:27;;;;;;;30.50;19.05;;;;;;;;;;2494547;23;20015;-73
2023/05/14 04:00:48;;;;;;;31.73;19.38;;;;;;;;;;2493885;23;20067;-72
2023/05/14 04:02:11;;;;;;;31.17;18.33;;;;;;;;;;2504878;23;20021;-73
2023/05/14 04:03:32;;;;;;;31.35;18.75;;;;;;;;;;2507931;23;20023;-73
2023/05/14 04:04:53;;;;;;;28.40;18.25;;;;;;;;;;2512741;23;20011;-73
2023/05/14 04:06:14;;;;;;;26.52;17.55;;;;;;;;;;2509274;23;20023;-73
2023/05/14 04:07:35;;;;;;;29.33;18.45;;;;;;;;;;2508060;23;20022;-73
2023/05/14 04:08:56;;;;;;;33.13;19.42;;;;;;;;;;2509231;23;20425;-72
2023/05/14 04:10:17;;;;;;;29.77;18.80;;;;;;;;;;2508107;23;20011;-73
2023/05/14 04:11:38;;;;;;;27.35;19.25;;;;;;;;;;2510260;23;20007;-73
2023/05/14 04:13:01;;;;;;;38.50;21.50;;;;;;;;;;2496826;23;20007;-73
2023/05/14 04:14:22;;;;;;;32.15;19.25;;;;;;;;;;2509835;23;20018;-73
2023/05/14 04:15:43;;;;;;;30.70;18.98;;;;;;;;;;2519668;23;20006;-73
2023/05/14 04:17:06;;;;;;;41.15;20.33;;;;;;;;;;2512435;23;20353;-72
2023/05/14 04:18:27;;;;;;;29.77;19.10;;;;;;;;;;2508020;23;20011;-73
2023/05/14 04:19:48;;;;;;;26.40;18.33;;;;;;;;;;2508723;23;20010;-73
2023/05/14 04:21:09;;;;;;;33.35;18.88;;;;;;;;;;2509681;23;20341;-73
2023/05/14 04:22:30;;;;;;;34.75;20.92;;;;;;;;;;2519087;23;20010;-72
2023/05/14 04:23:52;;;;;;;31.77;18.85;;;;;;;;;;2508433;23;20023;-73
2023/05/14 04:25:13;;;;;;;29.17;19.10;;;;;;;;;;2520151;23;20010;-72
2023/05/14 04:26:34;;;;;;;29.38;19.70;;;;;;;;;;2520403;23;20022;-72
2023/05/14 04:27:58;;;;;;;24.83;17.63;;;;;;;;;;2522108;23;20321;-73
2023/05/14 04:29:19;;;;;;;29.88;18.77;;;;;;;;;;2513516;23;20455;-72
2023/05/14 04:30:44;;;;;;;31.23;21.05;;;;;;;;;;2509278;23;20007;-73
2023/05/14 04:32:06;;;;;;;32.25;20.35;;;;;;;;;;2522273;23;20057;-73
2023/05/14 04:33:27;;;;;;;30.48;19.50;;;;;;;;;;2520516;23;20021;-72
2023/05/14 04:34:48;;;;;;;30.40;18.90;;;;;;;;;;2513031;23;20017;-73
2023/05/14 04:36:09;;;;;;;32.33;19.35;;;;;;;;;;2507390;23;20011;-72
2023/05/14 04:37:30;;;;;;;32.45;20.10;;;;;;;;;;2510313;23;20018;-73
2023/05/14 04:38:53;;;;;;;31.60;20.53;;;;;;;;;;2510626;23;20021;-72
2023/05/14 04:40:15;;;;;;;30.30;19.23;;;;;;;;;;2508936;23;20398;-73
2023/05/14 04:41:36;;;;;;;;;;;;;;;;;;2519178;23;20018;-73
2023/05/14 04:42:57;;;;;;;35.40;20.70;;;;;;;;;;2511620;23;19906;-73
2023/05/14 04:44:18;;;;;;;37.78;21.10;;;;;;;;;;2508750;23;20018;-73
2023/05/14 04:45:39;;;;;;;30.40;20.08;;;;;;;;;;2509116;23;20357;-73
2023/05/14 04:47:01;;;;;;;31.67;20.40;;;;;;;;;;2508689;23;20007;-72
2023/05/14 04:48:21;;;;;;;36.60;21.53;;;;;;;;;;2517242;23;20416;-72
2023/05/14 04:49:42;;;;;;;32.25;19.98;;;;;;;;;;2515235;23;20007;-73
2023/05/14 04:51:03;;;;;;;33.80;21.38;;;;;;;;;;2511998;23;20014;-72
2023/05/14 04:52:24;;;;;;;32.63;20.42;;;;;;;;;;2520501;23;20019;-73
2023/05/14 04:53:45;;;;;;;30.90;20.85;;;;;;;;;;2520276;23;20070;-73
2023/05/14 04:55:07;;;;;;;33.78;22.20;;;;;;;;;;2511577;23;20027;-73
2023/05/14 04:56:31;;;;;;;39.28;23.45;;;;;;;;;;2513226;23;20018;-73
2023/05/14 04:57:52;;;;;;;40.65;24.45;;;;;;;;;;2508286;23;20425;-73
2023/05/14 04:59:13;;;;;;;37.70;21.75;;;;;;;;;;2505185;23;20018;-73
2023/05/14 05:00:34;;;;;;;37.92;22.42;;;;;;;;;;2508360;23;20014;-73
2023/05/14 05:01:55;;;;;;;35.15;21.50;;;;;;;;;;2510210;23;20022;-72
2023/05/14 05:03:16;;;;;;;38.97;20.92;;;;;;;;;;2507080;23;20342;-72
2023/05/14 05:04:37;;;;;;;36.20;22.13;;;;;;;;;;2515183;23;20011;-73
2023/05/14 05:05:58;;;;;;;39.55;21.80;;;;;;;;;;2505511;23;20015;-72
2023/05/14 05:07:19;;;;;;;42.00;22.30;;;;;;;;;;2514651;23;20345;-72
2023/05/14 05:08:40;;;;;;;41.33;23.63;;;;;;;;;;2511325;23;20011;-72
2023/05/14 05:10:01;;;;;;;34.20;21.70;;;;;;;;;;2520704;23;20014;-72
2023/05/14 05:11:22;;;;;;;37.75;21.73;;;;;;;;;;2511653;23;20015;-73
2023/05/14 05:12:43;;;;;;;31.88;21.10;;;;;;;;;;2509773;23;20066;-73
2023/05/14 05:14:04;;;;;;;34.05;20.50;;;;;;;;;;2521176;23;20464;-73
2023/05/14 05:15:24;;;;;;;39.28;22.98;;;;;;;;;;2508176;23;20014;-72
2023/05/14 05:16:45;;;;;;;47.08;22.10;;;;;;;;;;2508061;23;20014;-72
2023/05/14 05:18:12;;;;;;;40.35;22.33;;;;;;;;;;2508088;23;20011;-73
2023/05/14 05:19:33;;;;;;;41.85;22.20;;;;;;;;;;2507425;23;20020;-72
2023/05/14 05:20:54;;;;;;;50.53;23.17;;;;;;;;;;2516492;23;20014;-73
2023/05/14 05:22:15;;;;;;;39.35;21.40;;;;;;;;;;2506130;23;20015;-72
2023/05/14 05:23:36;;;;;;;38.80;22.70;;;;;;;;;;2508149;23;20042;-72
2023/05/14 05:24:58;;;;;;;39.13;21.10;;;;;;;;;;2515998;23;20018;-72
2023/05/14 05:26:20;;;;;;;34.63;21.35;;;;;;;;;;2511811;23;20015;-72
2023/05/14 05:27:41;;;;;;;49.40;23.88;;;;;;;;;;2516094;23;20468;-73
2023/05/14 05:29:03;;;;;;;40.30;22.13;;;;;;;;;;2507590;23;20014;-73
2023/05/14 05:30:24;;;;;;;38.90;22.50;;;;;;;;;;2507398;23;20011;-73
2023/05/14 05:31:45;;;;;;;32.95;22.27;;;;;;;;;;2509584;23;20014;-72
2023/05/14 05:33:06;;;;;;;34.65;22.02;;;;;;;;;;2517297;23;20057;-73
2023/05/14 05:34:27;;;;;;;39.78;21.20;;;;;;;;;;2519131;23;20014;-73
2023/05/14 05:35:48;;;;;;;37.45;22.17;;;;;;;;;;2514271;23;20014;-72
2023/05/14 05:37:11;;;;;;;35.90;21.58;;;;;;;;;;2518115;23;20006;-73
2023/05/14 05:38:32;;;;;;;36.58;22.20;;;;;;;;;;2520376;23;20020;-73
2023/05/14 05:39:53;;;;;;;38.42;20.98;;;;;;;;;;2519538;23;20456;-73
2023/05/14 05:41:14;;;;;;;31.85;20.45;;;;;;;;;;2519935;23;20058;-72
2023/05/14 05:42:35;;;;;;;29.75;20.00;;;;;;;;;;2504740;23;20014;-73
2023/05/14 05:43:56;;;;;;;33.85;19.20;;;;;;;;;;2507897;23;20026;-72
2023/05/14 05:45:16;;;;;;;34.95;19.70;;;;;;;;;;2507500;23;20011;-73
2023/05/14 05:46:37;;;;;;;31.05;20.17;;;;;;;;;;2515487;23;20011;-72
2023/05/14 05:47:58;;;;;;;30.60;19.83;;;;;;;;;;2507488;23;20062;-73
2023/05/14 05:49:19;;;;;;;31.38;18.95;;;;;;;;;;2515243;23;20017;-72
2023/05/14 05:50:40;;;;;;;43.75;21.10;;;;;;;;;;2506251;23;20011;-72
2023/05/14 05:52:01;;;;;;;45.53;22.23;;;;;;;;;;2515402;23;20392;-72
2023/05/14 05:53:22;;;;;;;43.83;21.10;;;;;;;;;;2514526;23;20332;-73
2023/05/14 05:54:43;;;;;;;46.55;21.23;;;;;;;;;;2512260;23;20194;-73
2023/05/14 05:56:05;;;;;;;50.03;21.77;;;;;;;;;;2513993;23;20014;-73
2023/05/14 05:57:26;;;;;;;51.20;23.70;;;;;;;;;;2514657;23;20017;-74
2023/05/14 05:58:47;;;;;;;50.80;22.80;;;;;;;;;;2502391;23;20030;-73
2023/05/14 06:00:14;;;;;;;52.75;23.80;;;;;;;;;;2509274;23;20014;-73
2023/05/14 06:01:35;;;;;;;30.38;18.10;;;;;;;;;;2517218;23;20014;-73
2023/05/14 06:02:56;;;;;;;33.20;17.42;;;;;;;;;;2517596;23;20021;-72
2023/05/14 06:04:16;;;;;;;36.92;18.38;;;;;;;;;;2517936;23;20014;-72
2023/05/14 06:05:37;;;;;;;31.38;19.27;;;;;;;;;;2507601;23;20011;-73
2023/05/14 06:06:58;;;;;;;29.45;17.25;;;;;;;;;;2517112;23;20069;-73
2023/05/14 06:08:19;;;;;;;37.10;19.73;;;;;;;;;;2516813;23;20010;-73
2023/05/14 06:09:40;;;;;;;36.78;18.88;;;;;;;;;;2518489;23;20014;-72
2023/05/14 06:11:02;;;;;;;33.85;19.48;;;;;;;;;;2509070;23;20461;-72
2023/05/14 06:12:22;;;;;;;39.38;20.05;;;;;;;;;;2512628;23;20019;-72
2023/05/14 06:13:44;;;;;;;39.45;19.13;;;;;;;;;;2520469;23;20025;-70
2023/05/14 06:15:05;;;;;;;29.65;17.55;;;;;;;;;;2520887;23;20013;-70
2023/05/14 06:16:26;;;;;;;35.28;18.38;;;;;;;;;;2520347;23;20183;-72
2023/05/14 06:17:49;;;;;;;32.20;18.02;;;;;;;;;;2506180;23;20030;-71
2023/05/14 06:19:10;;;;;;;31.20;18.65;;;;;;;;;;2505533;23;20011;-72
2023/05/14 06:20:31;;;;;;;35.70;19.27;;;;;;;;;;2517364;23;20014;-72
2023/05/14 06:21:52;;;;;;;31.67;18.80;;;;;;;;;;2520800;23;20231;-72
2023/05/14 06:23:15;;;;;;;30.10;17.83;;;;;;;;;;2517497;23;20357;-72
2023/05/14 06:24:36;;;;;;;33.40;19.52;;;;;;;;;;2521282;23;20344;-72
2023/05/14 06:25:57;;;;;;;33.65;20.00;;;;;;;;;;2520117;23;20014;-71
2023/05/14 06:27:18;;;;;;;35.20;19.73;;;;;;;;;;2509630;23;20010;-72
2023/05/14 06:28:39;;;;;;;29.67;20.02;;;;;;;;;;2517419;23;20018;-72
2023/05/14 06:30:00;;;;;;;32.67;18.02;;;;;;;;;;2522638;23;20013;-71
2023/05/14 06:31:21;;;;;;;34.20;18.80;;;;;;;;;;2523279;23;20007;-71
2023/05/14 06:32:42;;;;;;;29.63;18.98;;;;;;;;;;2519808;23;20022;-73
2023/05/14 06:34:03;;;;;;;33.00;17.20;;;;;;;;;;2520217;23;20013;-75
2023/05/14 06:35:24;;;;;;;47.17;20.80;;;;;;;;;;2507590;23;20088;-76
2023/05/14 06:36:45;;;;;;;33.83;19.33;;;;;;;;;;2519554;23;20056;-76
2023/05/14 06:38:09;;;;;;;31.58;19.55;;;;;;;;;;2509804;23;20022;-76
2023/05/14 06:39:30;;;;;;;31.25;19.13;;;;;;;;;;2517934;23;20018;-76
2023/05/14 06:40:54;;;;;;;29.40;18.30;;;;;;;;;;2519418;23;20437;-76
2023/05/14 06:42:15;;;;;;;40.42;20.45;;;;;;;;;;2518104;23;20018;-71
2023/05/14 06:43:36;;;;;;;33.97;18.37;;;;;;;;;;2520079;23;20019;-71
2023/05/14 06:44:59;;;;;;;26.63;17.15;;;;;;;;;;2522101;23;20420;-72
2023/05/14 06:46:20;;;;;;;30.63;17.90;;;;;;;;;;2510751;23;20011;-71
2023/05/14 06:47:42;;;;;;;30.08;17.48;;;;;;;;;;2519712;23;20061;-71
2023/05/14 06:49:05;;;;;;;38.03;19.08;;;;;;;;;;2523254;23;20015;-71
2023/05/14 06:50:26;;;;;;;25.75;16.98;;;;;;;;;;2522395;23;20386;-71
2023/05/14 06:51:47;;;;;;;27.92;17.98;;;;;;;;;;2519369;23;20007;-71
2023/05/14 06:53:08;;;;;;;28.67;17.52;;;;;;;;;;2518432;23;20018;-71
2023/05/14 06:54:29;;;;;;;28.15;16.55;;;;;;;;;;2518460;23;20344;-71
2023/05/14 06:55:50;;;;;;;25.95;17.52;;;;;;;;;;2521489;23;20010;-71
2023/05/14 06:57:11;;;;;;;28.15;17.02;;;;;;;;;;2517651;23;20015;-72
2023/05/14 06:58:32;;;;;;;33.78;18.70;;;;;;;;;;2518362;23;20611;-71
2023/05/14 06:59:53;;;;;;;27.13;17.10;;;;;;;;;;2517939;23;20304;-71
2023/05/14 07:01:15;;;;;;;27.23;17.02;;;;;;;;;;2517070;23;20010;-71
2023/05/14 07:02:36;;;;;;;54.42;24.85;;;;;;;;;;2514708;23;20014;-72
2023/05/14 07:03:57;;;;;;;42.15;20.27;;;;;;;;;;2518049;23;20018;-72
2023/05/14 07:05:18;;;;;;;40.38;20.02;;;;;;;;;;2520555;23;20010;-71
2023/05/14 07:06:39;;;;;;;42.50;20.40;;;;;;;;;;2517493;23;20010;-71
2023/05/14 07:08:00;;;;;;;37.22;19.42;;;;;;;;;;2505106;23;20015;-71
2023/05/14 07:09:21;;;;;;;49.70;20.83;;;;;;;;;;2512520;23;20007;-71
2023/05/14 07:10:42;;;;;;;37.10;20.33;;;;;;;;;;2514764;23;20010;-72
2023/05/14 07:12:03;;;;;;;36.60;19.73;;;;;;;;;;2518491;23;20015;-72
2023/05/14 07:13:25;;;;;;;33.17;18.80;;;;;;;;;;2515681;23;20461;-72
2023/05/14 07:14:46;;;;;;;39.95;20.63;;;;;;;;;;2518279;23;20460;-72
2023/05/14 07:16:10;;;;;;;36.13;18.70;;;;;;;;;;2519386;23;20018;-72
2023/05/14 07:17:31;;;;;;;31.65;19.23;;;;;;;;;;2518269;23;20066;-72
2023/05/14 07:18:52;;;;;;;24.10;16.45;;;;;;;;;;2519606;23;20322;-72
2023/05/14 07:20:13;;;;;;;37.47;18.77;;;;;;;;;;2519200;23;20026;-72
2023/05/14 07:21:34;;;;;;;33.28;19.20;;;;;;;;;;2521473;23;20011;-72
2023/05/14 07:22:55;;;;;;;32.33;18.27;;;;;;;;;;2520643;23;20019;-72
2023/05/14 07:24:16;;;;;;;32.97;17.80;;;;;;;;;;2507532;23;20007;-71
2023/05/14 07:25:37;;;;;;;30.05;18.35;;;;;;;;;;2515205;23;20010;-72
2023/05/14 07:26:58;;;;;;;29.98;17.52;;;;;;;;;;2521013;23;20021;-72
2023/05/14 07:28:19;;;;;;;34.22;18.13;;;;;;;;;;2520735;23;20018;-72
2023/05/14 07:29:40;;;;;;;27.08;17.58;;;;;;;;;;2524023;23;20007;-72
2023/05/14 07:31:01;;;;;;;26.40;17.50;;;;;;;;;;2507768;23;20022;-72
2023/05/14 07:32:23;;;;;;;39.63;19.08;;;;;;;;;;2517337;23;20058;-72
2023/05/14 07:33:47;;;;;;;25.98;16.38;;;;;;;;;;2520664;23;20021;-72
2023/05/14 07:35:08;;;;;;;33.80;17.58;;;;;;;;;;2520911;23;20010;-72
2023/05/14 07:36:30;;;;;;;36.35;19.13;;;;;;;;;;2520506;23;20022;-72
2023/05/14 07:37:52;;;;;;;42.13;18.90;;;;;;;;;;2520754;23;20010;-72
2023/05/14 07:39:13;;;;;;;32.78;17.60;;;;;;;;;;2509287;23;20353;-72
2023/05/14 07:40:34;;;;;;;33.45;18.75;;;;;;;;;;2515968;23;20006;-73
2023/05/14 07:41:55;;;;;;;42.67;19.98;;;;;;;;;;2518752;23;20337;-72
2023/05/14 07:43:16;;;;;;;33.53;18.23;;;;;;;;;;2517277;23;20018;-73
2023/05/14 07:44:36;;;;;;;36.15;17.92;;;;;;;;;;2516655;23;20011;-73
2023/05/14 07:45:57;;;;;;;37.70;18.90;;;;;;;;;;2517071;23;20011;-73
2023/05/14 07:47:18;;;;;;;29.33;16.98;;;;;;;;;;2516462;23;20349;-73
2023/05/14 07:48:39;;;;;;;30.27;17.20;;;;;;;;;;2516018;23;20010;-73
2023/05/14 07:50:00;;;;;;;27.95;16.42;;;;;;;;;;2517483;23;20069;-73
2023/05/14 07:51:21;;;;;;;27.88;16.30;;;;;;;;;;2520336;23;20011;-73
2023/05/14 07:52:43;;;;;;;32.70;18.57;;;;;;;;;;2506349;23;20017;-73
2023/05/14 07:54:04;;;;;;;26.70;15.80;;;;;;;;;;2515167;23;20933;-73
2023/05/14 07:55:25;;;;;;;29.38;15.93;;;;;;;;;;2519207;23;20070;-73